This is the latest recevied weather packets stored in our database for station/object SQ9IWE-13. If no packets are shown the sender has not sent any weather packets the latest 10 day(s).
| Time | Temp. | Humidity | Pressure | Rain* | Wind** | Luminosity | Snow |
|---|---|---|---|---|---|---|---|
| 1777792800 | 21.11° C | 43% | 1019 hPa | - | - | - | - |
| 1777792200 | 20° C | 44% | 1019 hPa | - | - | - | - |
| 1777791600 | 19.44° C | 44% | 1018.9 hPa | - | - | - | - |
| 1777791000 | 18.89° C | 46% | 1018.9 hPa | - | - | - | - |
| 1777790401 | 18.89° C | 47% | 1018.9 hPa | - | - | - | - |
| 1777789801 | 18.89° C | 47% | 1019 hPa | - | - | - | - |
| 1777789201 | 18.33° C | 47% | 1018.9 hPa | - | - | - | - |
| 1777788601 | 17.22° C | 48% | 1018.9 hPa | - | - | - | - |
| 1777788001 | 17.78° C | 47% | 1018.9 hPa | - | - | - | - |
| 1777787401 | 19.44° C | 44% | 1019 hPa | - | - | - | - |
| 1777786801 | 17.78° C | 47% | 1019 hPa | - | - | - | - |
| 1777786201 | 17.78° C | 46% | 1018.9 hPa | - | - | - | - |
| 1777785601 | 17.22° C | 48% | 1019 hPa | - | - | - | - |
| 1777785001 | -13.33° C | 49% | - | - | - | - | - |
| 1777784401 | 16.11° C | 49% | 1018.9 hPa | - | - | - | - |
| 1777783801 | 14.44° C | 54% | 1019 hPa | - | - | - | - |
| 1777783201 | 15° C | 54% | 1018.9 hPa | - | - | - | - |
| 1777782601 | 13.33° C | 57% | 1018.9 hPa | - | - | - | - |
| 1777782001 | 12.22° C | 63% | 1018.7 hPa | - | - | - | - |
| 1777781401 | 8.33° C | 78% | 1018.7 hPa | - | - | - | - |
| 1777780801 | 7.22° C | 80% | 1018.7 hPa | - | - | - | - |
| 1777780201 | 6.67° C | 81% | 1018.7 hPa | - | - | - | - |
| 1777779601 | 6.67° C | 80% | 1018.7 hPa | - | - | - | - |
| 1777779001 | 7.22° C | 79% | 1018.5 hPa | - | - | - | - |
| 1777778401 | 6.67° C | 81% | 1018.5 hPa | - | - | - | - |
* Rain since midnight (hover to see other rain measurements)
** Current wind speed in m/s (hover to see current wind gust speed)